Time;durP1;ratioP1;P1;durP2;ratioP2;P2;SDS_P1;SDS_P2;PMS_P1;PMS_P2;Temp;Humidity;BMP_temperature;BMP_pressure;BME280_temperature;BME280_humidity;BME280_pressure;Samples;Min_cycle;Max_cycle;Signal;HPM_P1;HPM_P2
2022/06/06 00:01:43;;;;;;;3.75;2.35;;;22.20;90.60;;;;;;5101680;28;20792;-79
2022/06/06 00:04:11;;;;;;;3.45;2.25;;;22.10;90.60;;;;;;5103071;28;20227;-78
2022/06/06 00:06:40;;;;;;;5.18;2.58;;;22.20;90.40;;;;;;5098031;28;20193;-81
2022/06/06 00:09:11;;;;;;;5.65;3.13;;;22.10;90.60;;;;;;5098888;28;20209;-80
2022/06/06 00:11:40;;;;;;;5.18;2.40;;;22.10;90.90;;;;;;5105157;28;20766;-79
2022/06/06 00:14:10;;;;;;;5.10;2.47;;;22.10;91.20;;;;;;5099046;28;20189;-80
2022/06/06 00:16:38;;;;;;;3.50;2.30;;;22.00;91.30;;;;;;5102223;28;20225;-81
2022/06/06 00:19:11;;;;;;;8.20;2.90;;;22.00;91.20;;;;;;5105604;28;20188;-78
2022/06/06 00:21:41;;;;;;;3.03;1.95;;;22.00;91.40;;;;;;5105900;27;20240;-78
2022/06/06 00:24:11;;;;;;;5.20;2.00;;;21.90;91.50;;;;;;5103823;28;20219;-81
2022/06/06 00:26:40;;;;;;;4.90;2.40;;;21.90;91.40;;;;;;5102826;28;20207;-78
2022/06/06 00:29:09;;;;;;;2.92;1.85;;;21.80;91.60;;;;;;5106911;28;20206;-77
2022/06/06 00:37:13;;;;;;;4.97;2.10;;;21.70;91.50;;;;;;5101041;28;20197;-79
2022/06/06 00:39:43;;;;;;;3.47;2.00;;;21.70;91.40;;;;;;5105460;28;20193;-80
2022/06/06 00:42:23;;;;;;;3.47;2.25;;;21.70;91.60;;;;;;5102396;28;20189;-82
2022/06/06 00:45:26;;;;;;;3.08;1.80;;;21.70;91.70;;;;;;5105822;28;20209;-81
2022/06/06 00:48:01;;;;;;;2.75;1.80;;;21.70;91.80;;;;;;5096229;27;20436;-81
2022/06/06 00:50:36;;;;;;;2.97;1.98;;;21.60;91.80;;;;;;5097169;28;20193;-80
2022/06/06 00:53:07;;;;;;;4.60;2.15;;;21.60;91.90;;;;;;5102153;28;20197;-79
2022/06/06 00:55:43;;;;;;;6.20;2.13;;;21.60;91.80;;;;;;5099395;28;20201;-80
2022/06/06 00:58:16;;;;;;;4.78;2.03;;;21.60;91.60;;;;;;5099657;28;20189;-79
2022/06/06 01:00:44;;;;;;;4.80;2.00;;;21.60;91.60;;;;;;5094110;28;20200;-81
2022/06/06 01:03:16;;;;;;;2.65;1.75;;;21.60;91.50;;;;;;5106126;28;20201;-80
2022/06/06 01:05:48;;;;;;;2.47;1.65;;;21.70;91.50;;;;;;5106086;28;20292;-82
2022/06/06 01:08:20;;;;;;;5.90;2.05;;;21.70;91.50;;;;;;5099935;28;20321;-79
2022/06/06 01:10:49;;;;;;;3.75;2.20;;;21.60;91.50;;;;;;5104558;28;20595;-81
2022/06/06 01:13:22;;;;;;;3.97;2.03;;;21.70;91.50;;;;;;5106778;27;20232;-78
2022/06/06 01:16:16;;;;;;;3.95;2.03;;;21.60;91.70;;;;;;5105141;28;20225;-81
2022/06/06 01:18:55;;;;;;;3.87;2.00;;;21.60;91.70;;;;;;5098847;28;20246;-78
2022/06/06 01:22:02;;;;;;;3.22;1.80;;;21.60;91.70;;;;;;5104659;28;20204;-80
2022/06/06 01:24:53;;;;;;;3.08;2.08;;;21.60;91.70;;;;;;5094648;28;20208;-81
2022/06/06 01:27:35;;;;;;;4.10;2.40;;;21.60;91.60;;;;;;5060649;27;20197;-81
2022/06/06 01:30:09;;;;;;;3.85;2.17;;;21.60;91.60;;;;;;5105247;28;20189;-81
2022/06/06 01:32:42;;;;;;;3.35;2.00;;;21.60;91.50;;;;;;5106887;28;20189;-80
2022/06/06 01:35:11;;;;;;;3.88;2.50;;;21.70;91.60;;;;;;5103035;28;20751;-79
2022/06/06 01:37:43;;;;;;;4.07;2.10;;;21.70;91.50;;;;;;5103244;28;20205;-79
2022/06/06 01:40:13;;;;;;;4.90;2.03;;;21.70;91.60;;;;;;5100008;28;20193;-81
2022/06/06 01:42:49;;;;;;;4.30;2.58;;;21.60;91.90;;;;;;5103686;28;20987;-81
2022/06/06 01:45:25;;;;;;;3.28;2.30;;;21.60;92.10;;;;;;5102039;28;20220;-82
2022/06/06 01:47:57;;;;;;;3.33;2.10;;;21.50;92.10;;;;;;5104066;28;20207;-81
2022/06/06 01:50:26;;;;;;;3.50;2.33;;;21.50;92.10;;;;;;5107314;27;20200;-81
2022/06/06 01:52:59;;;;;;;4.13;2.58;;;21.50;92.10;;;;;;5098398;28;20415;-82
2022/06/06 01:55:29;;;;;;;3.38;2.25;;;21.50;92.10;;;;;;5099653;28;20193;-81
2022/06/06 01:58:03;;;;;;;6.20;2.28;;;21.50;92.20;;;;;;5096211;28;20193;-83
2022/06/06 02:00:35;;;;;;;3.60;2.13;;;21.40;92.80;;;;;;5104942;28;20204;-81
2022/06/06 02:03:04;;;;;;;5.97;2.95;;;21.40;92.20;;;;;;5103850;27;20199;-83
2022/06/06 02:05:33;;;;;;;4.82;2.47;;;21.40;92.20;;;;;;5098790;28;20213;-80
2022/06/06 02:08:02;;;;;;;4.93;2.30;;;21.50;92.30;;;;;;5103256;27;20189;-81
2022/06/06 02:10:31;;;;;;;4.22;2.30;;;21.40;92.40;;;;;;5101123;28;20199;-80
2022/06/06 02:12:59;;;;;;;4.13;2.60;;;21.40;92.40;;;;;;5101191;28;20211;-83
2022/06/06 02:15:28;;;;;;;4.05;2.40;;;21.40;92.50;;;;;;5092673;28;20221;-79
2022/06/06 02:17:58;;;;;;;3.67;2.30;;;21.50;92.50;;;;;;5077564;28;20194;-82
2022/06/06 02:20:30;;;;;;;4.82;2.33;;;21.40;92.50;;;;;;5080464;28;20196;-79
2022/06/06 02:23:00;;;;;;;5.70;2.70;;;21.40;92.70;;;;;;5080393;28;20605;-82
2022/06/06 02:25:30;;;;;;;4.93;2.75;;;21.40;92.80;;;;;;5080103;28;20209;-85
2022/06/06 02:27:59;;;;;;;4.45;2.97;;;21.30;93.10;;;;;;5079831;28;20221;-79
2022/06/06 02:30:30;;;;;;;5.57;2.78;;;21.30;93.30;;;;;;5083618;28;20205;-80
2022/06/06 02:33:01;;;;;;;6.05;2.88;;;21.20;93.30;;;;;;5080221;28;20338;-78
2022/06/06 02:35:32;;;;;;;6.37;3.27;;;21.20;93.30;;;;;;5082750;28;20182;-79
2022/06/06 02:38:00;;;;;;;5.47;3.30;;;21.20;93.40;;;;;;5078573;28;20193;-77
2022/06/06 02:40:30;;;;;;;5.63;3.25;;;21.10;94.30;;;;;;5084181;28;20200;-78
2022/06/06 02:42:59;;;;;;;4.18;2.70;;;21.10;94.10;;;;;;5082121;28;20193;-78
2022/06/06 02:45:28;;;;;;;6.47;3.10;;;21.00;94.10;;;;;;5080961;28;20233;-78
2022/06/06 02:47:58;;;;;;;5.32;3.22;;;21.00;94.00;;;;;;5080997;28;20696;-79
2022/06/06 02:50:33;;;;;;;7.88;2.95;;;21.00;94.30;;;;;;5082279;28;20190;-78
2022/06/06 02:53:02;;;;;;;5.45;3.25;;;21.00;94.30;;;;;;5081278;28;20239;-78
2022/06/06 02:55:31;;;;;;;4.13;2.95;;;20.90;94.10;;;;;;5082877;28;20189;-77
2022/06/06 02:58:01;;;;;;;4.53;3.20;;;20.90;94.00;;;;;;5079419;28;20206;-79
2022/06/06 03:00:31;;;;;;;5.13;3.47;;;20.90;94.10;;;;;;5080847;28;20190;-79
2022/06/06 03:03:00;;;;;;;6.03;3.50;;;20.90;94.10;;;;;;5082536;28;20648;-79
2022/06/06 03:05:40;;;;;;;4.30;3.08;;;20.90;94.10;;;;;;5083755;28;20225;-81
2022/06/06 03:08:18;;;;;;;7.07;3.00;;;20.90;94.00;;;;;;5081492;28;20197;-79
2022/06/06 03:11:03;;;;;;;5.00;3.00;;;20.90;93.90;;;;;;5076663;28;20186;-80
2022/06/06 03:13:54;;;;;;;9.20;3.00;;;21.00;94.00;;;;;;5077567;28;20718;-82
2022/06/06 03:22:40;;;;;;;4.07;2.50;;;21.00;93.70;;;;;;5074723;28;20196;-78
2022/06/06 03:25:21;;;;;;;5.68;2.83;;;21.10;93.60;;;;;;5082849;28;20201;-78
2022/06/06 03:27:54;;;;;;;5.88;2.70;;;21.10;93.50;;;;;;5079730;28;20197;-80
2022/06/06 03:30:29;;;;;;;4.00;2.72;;;21.10;93.40;;;;;;5080929;28;20625;-79
2022/06/06 03:33:09;;;;;;;4.85;2.97;;;21.10;93.50;;;;;;5082435;28;20189;-81
2022/06/06 03:35:44;;;;;;;4.93;3.40;;;21.10;93.40;;;;;;5082104;28;20181;-80
2022/06/06 03:38:23;;;;;;;7.53;2.60;;;21.10;93.50;;;;;;5078861;28;20186;-80
2022/06/06 03:41:01;;;;;;;6.35;2.33;;;21.10;93.20;;;;;;5081851;28;20280;-83
2022/06/06 03:43:38;;;;;;;5.20;2.20;;;21.10;93.10;;;;;;5077689;28;20198;-83
2022/06/06 03:46:20;;;;;;;3.28;2.03;;;21.10;93.10;;;;;;5083065;28;20223;-82
2022/06/06 03:49:04;;;;;;;2.85;1.83;;;21.20;93.00;;;;;;5077270;28;20307;-81
2022/06/06 03:51:38;;;;;;;2.75;2.03;;;21.20;92.80;;;;;;5083701;28;20197;-81
2022/06/06 03:54:21;;;;;;;2.92;1.75;;;21.20;92.70;;;;;;5080769;28;20223;-81
2022/06/06 03:57:02;;;;;;;1.85;1.30;;;21.30;92.70;;;;;;5082257;28;20566;-83
2022/06/06 03:59:31;;;;;;;3.78;1.52;;;21.30;92.40;;;;;;5084978;28;20182;-83
2022/06/06 04:02:05;;;;;;;1.92;1.30;;;21.40;92.30;;;;;;5086975;28;20247;-79
2022/06/06 04:04:35;;;;;;;1.50;1.00;;;21.40;92.20;;;;;;5086785;28;20193;-81
2022/06/06 04:07:04;;;;;;;2.65;1.48;;;21.50;92.20;;;;;;5084746;28;20583;-79
2022/06/06 04:09:35;;;;;;;1.90;1.20;;;21.50;91.90;;;;;;5085033;28;20281;-82
2022/06/06 04:12:17;;;;;;;5.15;1.20;;;21.50;91.80;;;;;;5085806;28;20205;-81
2022/06/06 04:14:53;;;;;;;3.72;1.10;;;21.50;91.40;;;;;;5085326;28;20232;-80
2022/06/06 04:17:37;;;;;;;2.30;1.42;;;21.60;91.50;;;;;;5082648;28;20236;-79
2022/06/06 04:20:21;;;;;;;2.13;1.23;;;21.60;91.20;;;;;;5084273;28;20190;-81
2022/06/06 04:23:09;;;;;;;1.58;1.00;;;21.70;91.10;;;;;;5084151;28;20190;-83
2022/06/06 04:25:46;;;;;;;2.25;0.85;;;21.70;91.00;;;;;;5074188;28;20213;-82
2022/06/06 04:28:22;;;;;;;1.25;0.88;;;21.80;91.00;;;;;;5076192;28;20559;-81
2022/06/06 04:30:58;;;;;;;0.88;0.70;;;21.80;90.90;;;;;;5085500;28;20262;-80
2022/06/06 04:33:34;;;;;;;0.77;0.65;;;21.90;90.50;;;;;;5083462;28;20198;-80
2022/06/06 04:36:10;;;;;;;1.02;0.50;;;21.90;90.50;;;;;;5085272;28;20182;-80
2022/06/06 04:38:45;;;;;;;2.50;0.60;;;21.90;90.10;;;;;;5085732;28;20481;-79
2022/06/06 04:41:22;;;;;;;0.85;0.60;;;21.90;90.00;;;;;;5085760;28;20193;-80
2022/06/06 04:43:57;;;;;;;0.60;0.50;;;21.90;89.90;;;;;;5080585;28;20193;-77
2022/06/06 04:46:33;;;;;;;1.42;0.80;;;21.90;89.60;;;;;;5086622;28;20201;-80
2022/06/06 04:49:02;;;;;;;0.68;0.60;;;21.90;89.30;;;;;;5083793;28;20185;-80
2022/06/06 04:51:34;;;;;;;1.27;0.73;;;22.00;89.40;;;;;;5081630;28;20194;-78
2022/06/06 04:54:04;;;;;;;0.95;0.70;;;22.00;89.00;;;;;;5085530;28;20201;-79
2022/06/06 04:56:35;;;;;;;5.45;0.98;;;22.00;89.00;;;;;;5082754;28;20213;-78
2022/06/06 04:59:05;;;;;;;1.98;0.80;;;22.00;89.00;;;;;;5082340;28;20276;-80
2022/06/06 05:01:34;;;;;;;1.00;0.80;;;22.10;88.80;;;;;;5082144;28;20194;-81
2022/06/06 05:04:04;;;;;;;1.83;1.00;;;22.10;88.80;;;;;;5080504;28;20201;-80
2022/06/06 05:06:53;;;;;;;1.35;0.80;;;22.10;88.80;;;;;;5083189;28;20213;-78
2022/06/06 05:09:51;;;;;;;2.22;1.00;;;22.20;88.90;;;;;;5083695;28;20186;-82
2022/06/06 05:12:35;;;;;;;2.17;1.35;;;22.20;89.60;;;;;;5084750;28;20671;-79
2022/06/06 05:15:30;;;;;;;2.20;1.17;;;22.20;87.80;;;;;;5081279;28;20256;-80
2022/06/06 05:18:21;;;;;;;2.65;1.20;;;22.20;87.50;;;;;;5086559;28;20194;-79
2022/06/06 05:21:06;;;;;;;2.58;1.30;;;22.20;87.00;;;;;;5087158;28;20260;-79
2022/06/06 05:23:51;;;;;;;2.72;1.27;;;22.30;87.10;;;;;;5085374;28;20205;-79
2022/06/06 05:26:49;;;;;;;2.17;1.33;;;22.30;87.30;;;;;;5076930;28;20435;-79
2022/06/06 05:29:59;;;;;;;3.92;1.13;;;22.40;87.30;;;;;;5086297;28;20435;-79
2022/06/06 05:32:56;;;;;;;1.85;1.00;;;22.40;86.90;;;;;;5069323;28;20197;-79
2022/06/06 05:35:49;;;;;;;1.27;0.90;;;22.50;86.10;;;;;;5081959;28;20223;-81
2022/06/06 05:38:32;;;;;;;1.50;1.02;;;22.50;85.70;;;;;;5085406;28;20205;-81
2022/06/06 05:41:24;;;;;;;1.30;0.80;;;22.50;85.40;;;;;;5082548;28;20201;-83
2022/06/06 05:44:03;;;;;;;1.05;0.60;;;22.60;85.00;;;;;;5081624;28;20194;-82
2022/06/06 05:46:42;;;;;;;1.00;0.80;;;22.60;83.50;;;;;;5086970;28;20284;-82
2022/06/06 05:49:24;;;;;;;2.67;0.68;;;22.60;84.00;;;;;;5087228;28;20281;-78
2022/06/06 05:52:06;;;;;;;0.70;0.60;;;22.70;84.30;;;;;;5077536;28;20632;-78
2022/06/06 05:54:50;;;;;;;2.28;0.70;;;22.80;84.00;;;;;;5091454;28;20205;-80
2022/06/06 05:57:43;;;;;;;1.52;0.63;;;22.80;84.10;;;;;;5087720;28;20702;-80
2022/06/06 06:00:19;;;;;;;4.30;0.80;;;22.90;83.80;;;;;;5087407;28;20221;-80
2022/06/06 06:03:15;;;;;;;1.38;0.88;;;23.00;82.20;;;;;;5086530;28;20246;-80
2022/06/06 06:05:57;;;;;;;0.95;0.60;;;23.00;82.20;;;;;;5083407;28;20212;-84
2022/06/06 06:08:43;;;;;;;3.08;0.80;;;23.00;81.40;;;;;;5086003;28;20186;-80
2022/06/06 06:11:27;;;;;;;1.40;0.80;;;23.10;81.80;;;;;;5069308;28;20209;-82
2022/06/06 06:14:10;;;;;;;1.10;0.70;;;23.20;81.40;;;;;;5079017;28;20266;-80
2022/06/06 06:16:48;;;;;;;1.10;0.95;;;23.20;81.10;;;;;;5081880;28;20244;-81
2022/06/06 06:19:19;;;;;;;2.55;0.85;;;23.20;79.90;;;;;;5075995;28;20224;-78
2022/06/06 06:21:54;;;;;;;0.88;0.60;;;23.30;80.90;;;;;;5082760;28;20567;-79
2022/06/06 06:24:28;;;;;;;1.40;1.00;;;23.30;80.30;;;;;;5084575;28;20197;-80
2022/06/06 06:26:57;;;;;;;1.08;0.80;;;23.30;80.00;;;;;;5080499;28;20228;-77
2022/06/06 06:29:26;;;;;;;0.60;0.60;;;23.40;80.20;;;;;;5085044;28;20200;-78
2022/06/06 06:32:08;;;;;;;1.83;1.00;;;23.40;79.90;;;;;;5082127;28;20194;-79
2022/06/06 06:34:52;;;;;;;2.25;0.90;;;23.50;80.00;;;;;;5083857;28;20549;-79
2022/06/06 06:37:46;;;;;;;1.85;0.90;;;23.60;79.70;;;;;;5081535;28;20276;-76
2022/06/06 06:40:29;;;;;;;2.22;1.05;;;23.60;79.30;;;;;;5082222;28;20368;-79
2022/06/06 06:43:11;;;;;;;1.73;0.90;;;23.70;79.30;;;;;;5070989;28;20815;-78
2022/06/06 06:45:45;;;;;;;2.25;0.85;;;23.70;79.00;;;;;;5080388;28;20193;-80
2022/06/06 06:48:18;;;;;;;3.22;0.90;;;23.70;78.60;;;;;;5083657;28;20205;-77
2022/06/06 06:50:56;;;;;;;1.00;0.70;;;23.80;79.00;;;;;;5081289;28;20185;-78
2022/06/06 06:53:42;;;;;;;1.88;1.10;;;23.90;79.10;;;;;;5082554;28;20189;-79
2022/06/06 06:56:22;;;;;;;1.00;0.80;;;23.90;78.20;;;;;;5082963;28;20669;-78
2022/06/06 06:58:56;;;;;;;0.95;0.70;;;23.90;76.90;;;;;;5081626;28;20204;-79
2022/06/06 07:01:36;;;;;;;2.20;0.90;;;23.90;76.60;;;;;;5072015;28;20202;-79
2022/06/06 07:10:12;;;;;;;1.67;1.00;;;24.00;76.50;;;;;;5078782;28;20481;-78
2022/06/06 07:13:02;;;;;;;2.47;1.10;;;24.00;76.50;;;;;;5079441;28;20193;-76
2022/06/06 07:15:38;;;;;;;1.00;0.80;;;24.00;75.70;;;;;;5082057;28;20366;-77
2022/06/06 07:18:09;;;;;;;2.25;1.10;;;24.00;74.60;;;;;;5081604;28;20474;-77
2022/06/06 07:20:41;;;;;;;2.95;0.85;;;24.00;74.70;;;;;;5083309;28;20192;-80
2022/06/06 07:23:12;;;;;;;3.10;0.95;;;24.00;74.90;;;;;;5082105;28;20281;-78
2022/06/06 07:25:44;;;;;;;2.25;0.80;;;24.10;76.30;;;;;;5081461;28;20632;-77
2022/06/06 07:28:15;;;;;;;1.48;0.73;;;24.10;76.10;;;;;;5083631;28;20223;-80
2022/06/06 07:30:57;;;;;;;2.10;1.30;;;24.20;76.00;;;;;;5081909;28;20194;-77
2022/06/06 07:33:39;;;;;;;1.48;0.88;;;24.20;76.30;;;;;;5082823;28;20603;-76
2022/06/06 07:36:18;;;;;;;5.18;1.13;;;24.20;75.10;;;;;;5083831;28;20216;-79
2022/06/06 07:39:02;;;;;;;1.75;0.80;;;24.20;73.60;;;;;;5084574;28;20185;-79
2022/06/06 07:41:45;;;;;;;2.25;1.00;;;24.20;74.10;;;;;;5081470;28;20194;-80
2022/06/06 07:44:34;;;;;;;0.85;0.70;;;24.20;74.70;;;;;;5080648;28;20186;-79
2022/06/06 07:47:07;;;;;;;1.58;1.00;;;24.30;73.70;;;;;;5083639;28;20225;-78
2022/06/06 07:49:47;;;;;;;1.52;0.90;;;24.30;73.90;;;;;;5083161;28;20208;-78
2022/06/06 07:52:28;;;;;;;1.75;0.98;;;24.30;74.10;;;;;;5082459;28;20198;-77
2022/06/06 07:55:02;;;;;;;1.65;1.20;;;24.30;75.20;;;;;;5079780;28;20186;-76
2022/06/06 07:57:38;;;;;;;1.38;0.90;;;24.40;74.40;;;;;;5077918;28;20194;-76
2022/06/06 08:00:10;;;;;;;1.58;0.80;;;24.50;74.30;;;;;;5081674;28;20186;-78
2022/06/06 08:03:05;;;;;;;1.40;0.90;;;24.40;72.60;;;;;;5083695;28;20550;-80
2022/06/06 08:06:00;;;;;;;3.80;0.93;;;24.50;72.20;;;;;;5074711;28;20279;-82
2022/06/06 08:08:54;;;;;;;1.42;1.00;;;24.50;71.80;;;;;;5068369;28;20491;-78
2022/06/06 08:11:33;;;;;;;1.77;1.15;;;24.50;71.70;;;;;;5081362;28;20209;-78
2022/06/06 08:14:15;;;;;;;4.30;1.20;;;24.50;71.90;;;;;;5076717;28;20245;-78
2022/06/06 08:16:57;;;;;;;1.08;0.88;;;24.50;71.40;;;;;;5078173;28;20316;-81
2022/06/06 08:19:40;;;;;;;1.60;1.13;;;24.60;72.50;;;;;;5078356;28;20181;-82
2022/06/06 08:22:10;;;;;;;1.67;1.05;;;24.70;72.40;;;;;;5080378;28;20284;-78
2022/06/06 08:24:41;;;;;;;1.45;1.20;;;24.80;72.50;;;;;;5083130;28;20202;-79
2022/06/06 08:27:19;;;;;;;2.15;1.20;;;24.80;71.00;;;;;;5080719;28;20896;-80
2022/06/06 08:29:50;;;;;;;1.70;1.00;;;24.90;71.70;;;;;;5081530;28;20193;-81
2022/06/06 08:32:19;;;;;;;1.58;1.00;;;25.00;70.00;;;;;;5082474;28;20198;-82
2022/06/06 08:34:48;;;;;;;1.55;1.02;;;25.00;70.70;;;;;;5082282;28;20225;-79
2022/06/06 08:37:41;;;;;;;2.35;1.25;;;25.00;70.60;;;;;;5081786;28;20687;-78
2022/06/06 08:40:38;;;;;;;2.15;1.30;;;25.10;70.50;;;;;;5082589;28;20661;-78
2022/06/06 08:43:18;;;;;;;1.83;1.00;;;25.20;71.20;;;;;;5086885;28;20205;-79
2022/06/06 08:45:53;;;;;;;2.10;1.10;;;25.20;69.90;;;;;;5084697;28;20202;-80
2022/06/06 08:48:48;;;;;;;1.70;0.98;;;25.20;68.70;;;;;;5084959;28;20301;-77
2022/06/06 08:51:27;;;;;;;1.98;0.95;;;25.30;70.10;;;;;;5087376;28;20844;-80
2022/06/06 08:54:44;;;;;;;1.73;1.23;;;25.30;69.90;;;;;;5079973;28;20906;-79
2022/06/06 08:57:31;;;;;;;1.65;0.90;;;25.40;69.20;;;;;;5077487;28;20565;-79
2022/06/06 09:00:25;;;;;;;2.42;1.08;;;25.40;69.20;;;;;;5086046;28;20233;-79
2022/06/06 09:03:26;;;;;;;1.23;0.90;;;25.50;69.40;;;;;;5078293;28;20205;-83
2022/06/06 09:06:19;;;;;;;1.15;0.80;;;25.60;69.70;;;;;;5080664;28;20193;-83
2022/06/06 09:09:25;;;;;;;4.15;1.30;;;25.60;68.00;;;;;;5077160;28;20210;-80
2022/06/06 09:12:17;;;;;;;1.13;0.85;;;25.80;68.40;;;;;;5084985;28;20202;-79
2022/06/06 09:15:17;;;;;;;1.08;0.85;;;25.90;68.30;;;;;;5077328;28;20257;-78
2022/06/06 09:18:13;;;;;;;2.30;1.08;;;26.00;67.80;;;;;;5082910;28;20190;-79
2022/06/06 09:20:50;;;;;;;2.28;1.20;;;26.10;68.00;;;;;;5077208;28;20202;-78
2022/06/06 09:23:47;;;;;;;1.20;0.90;;;26.10;67.40;;;;;;5086498;28;20193;-77
2022/06/06 09:26:25;;;;;;;3.13;1.05;;;26.20;67.60;;;;;;5064399;28;20193;-79
2022/06/06 09:29:33;;;;;;;1.65;1.00;;;26.30;65.60;;;;;;5081811;28;20220;-79
2022/06/06 09:32:40;;;;;;;2.45;1.02;;;26.40;65.70;;;;;;5083747;28;20252;-78
2022/06/06 09:35:39;;;;;;;2.45;0.80;;;26.40;65.90;;;;;;5072889;28;20197;-81
2022/06/06 09:38:38;;;;;;;1.35;0.95;;;26.40;64.30;;;;;;5083129;28;20186;-79
2022/06/06 09:41:26;;;;;;;2.55;1.15;;;26.50;65.20;;;;;;5084877;28;20189;-79
2022/06/06 09:44:01;;;;;;;1.60;0.98;;;26.50;65.60;;;;;;5082374;28;20189;-79
2022/06/06 09:47:08;;;;;;;1.63;1.08;;;26.60;65.40;;;;;;5080040;28;20189;-82
2022/06/06 09:50:05;;;;;;;3.75;1.33;;;26.70;64.80;;;;;;5075579;28;20295;-79
2022/06/06 09:53:26;;;;;;;2.17;1.30;;;26.80;64.90;;;;;;5080788;28;20236;-77
2022/06/06 09:59:51;;;;;;;1.70;0.95;;;26.90;62.50;;;;;;5022011;28;20199;-77
2022/06/06 10:02:53;;;;;;;1.75;1.05;;;26.90;64.10;;;;;;5085612;28;20205;-77
2022/06/06 10:05:59;;;;;;;1.38;1.10;;;26.90;62.70;;;;;;5086357;28;20193;-77
2022/06/06 10:09:13;;;;;;;3.10;1.40;;;26.80;63.00;;;;;;5073983;28;20221;-76
2022/06/06 10:12:16;;;;;;;2.58;1.50;;;26.70;62.70;;;;;;5073631;28;20194;-76
2022/06/06 10:15:04;;;;;;;3.75;1.17;;;26.70;63.10;;;;;;5081203;28;20645;-77
2022/06/06 10:17:53;;;;;;;1.75;1.10;;;26.80;63.60;;;;;;5085101;28;20285;-77
2022/06/06 10:20:45;;;;;;;1.85;1.30;;;26.80;64.10;;;;;;5081384;28;20224;-77
2022/06/06 10:23:45;;;;;;;2.83;1.20;;;26.90;63.60;;;;;;5071657;28;20201;-77
2022/06/06 10:26:45;;;;;;;5.65;1.25;;;27.10;63.50;;;;;;5073902;28;20273;-77
2022/06/06 10:32:56;;;;;;;2.42;1.40;;;27.00;62.10;;;;;;5079710;28;20190;-79
2022/06/06 10:35:36;;;;;;;2.72;1.38;;;26.90;61.50;;;;;;5083669;28;20221;-77
2022/06/06 10:38:28;;;;;;;1.35;1.10;;;26.90;61.90;;;;;;5083800;28;20651;-77
2022/06/06 10:41:06;;;;;;;2.20;1.05;;;26.90;61.60;;;;;;5070255;28;20561;-78
2022/06/06 10:43:42;;;;;;;2.85;1.40;;;27.10;62.60;;;;;;5081418;28;20768;-75
2022/06/06 10:46:18;;;;;;;1.83;1.10;;;27.10;62.10;;;;;;5078653;28;20248;-76
2022/06/06 10:49:10;;;;;;;2.00;1.30;;;27.10;62.40;;;;;;5081188;28;20898;-75
2022/06/06 10:52:09;;;;;;;3.83;1.30;;;27.20;61.50;;;;;;5085501;28;20583;-75
2022/06/06 10:55:09;;;;;;;2.75;1.20;;;27.20;60.50;;;;;;5080089;28;20190;-77
2022/06/06 10:58:13;;;;;;;3.90;1.30;;;27.30;61.40;;;;;;5082868;28;20581;-76
2022/06/06 11:01:08;;;;;;;5.75;1.52;;;27.40;62.00;;;;;;5070169;28;20647;-79
2022/06/06 11:03:55;;;;;;;1.67;1.17;;;27.40;61.80;;;;;;5082970;28;20267;-76
2022/06/06 11:06:46;;;;;;;2.17;1.27;;;27.60;61.70;;;;;;5084705;28;20201;-76
2022/06/06 11:09:36;;;;;;;4.65;1.20;;;27.60;60.00;;;;;;5080399;28;20205;-77
2022/06/06 11:12:41;;;;;;;1.83;1.35;;;27.50;58.70;;;;;;5081842;28;20190;-76
2022/06/06 11:15:10;;;;;;;2.50;1.63;;;27.50;59.30;;;;;;5079713;28;20236;-76
2022/06/06 11:18:13;;;;;;;2.83;1.20;;;27.60;59.70;;;;;;5079619;28;20683;-76
2022/06/06 11:21:29;;;;;;;2.30;1.40;;;27.70;59.20;;;;;;5078978;28;20205;-76
2022/06/06 11:24:09;;;;;;;2.03;1.30;;;27.80;58.50;;;;;;5082275;28;20193;-77
2022/06/06 11:27:00;;;;;;;3.72;1.50;;;27.80;58.40;;;;;;5082129;28;20189;-77
2022/06/06 11:30:00;;;;;;;2.03;1.30;;;27.90;59.30;;;;;;5084086;28;20209;-76
2022/06/06 11:32:55;;;;;;;2.47;1.42;;;27.90;59.50;;;;;;5076417;28;20201;-76
2022/06/06 11:35:45;;;;;;;4.20;1.17;;;27.80;59.00;;;;;;5050376;28;20204;-77
2022/06/06 11:38:52;;;;;;;3.05;1.10;;;27.90;59.30;;;;;;5076406;28;20198;-76
2022/06/06 11:41:32;;;;;;;1.75;1.38;;;27.90;58.30;;;;;;5081574;28;20194;-75
2022/06/06 11:44:16;;;;;;;2.40;1.40;;;27.90;58.60;;;;;;5083962;28;20190;-77
2022/06/06 11:47:34;;;;;;;3.15;1.40;;;28.00;59.20;;;;;;5075761;28;20197;-77
2022/06/06 11:50:38;;;;;;;1.77;1.20;;;28.00;59.40;;;;;;5070763;28;20221;-76
2022/06/06 11:53:50;;;;;;;2.53;1.55;;;28.20;58.60;;;;;;5073589;28;20198;-76
2022/06/06 11:56:41;;;;;;;3.78;1.50;;;28.30;58.90;;;;;;5079501;28;20193;-76
2022/06/06 11:59:44;;;;;;;3.17;1.63;;;28.50;58.70;;;;;;5079775;28;20222;-77
2022/06/06 12:02:47;;;;;;;2.28;1.40;;;28.50;58.10;;;;;;5078160;28;20212;-78
2022/06/06 12:05:48;;;;;;;1.55;1.15;;;28.60;57.30;;;;;;5079052;28;20200;-77
2022/06/06 12:08:43;;;;;;;2.53;1.30;;;28.60;56.70;;;;;;5082051;28;20196;-76
2022/06/06 12:11:53;;;;;;;2.80;1.58;;;28.50;56.20;;;;;;5079843;28;20217;-76
2022/06/06 12:14:51;;;;;;;4.30;1.30;;;28.50;56.60;;;;;;5049089;28;20193;-77
2022/06/06 12:17:33;;;;;;;1.80;1.20;;;28.60;56.60;;;;;;5078713;28;20202;-78
2022/06/06 12:20:40;;;;;;;3.45;1.25;;;28.60;56.50;;;;;;5083046;28;20225;-77
2022/06/06 12:23:17;;;;;;;1.35;1.10;;;28.70;57.00;;;;;;5078525;28;20194;-78
2022/06/06 12:26:00;;;;;;;18.40;1.30;;;28.80;56.50;;;;;;5083729;28;20189;-79
2022/06/06 12:28:54;;;;;;;6.68;1.00;;;28.90;56.80;;;;;;5081034;28;20186;-76
2022/06/06 12:31:48;;;;;;;1.67;1.10;;;29.10;56.80;;;;;;5081016;28;20185;-78
2022/06/06 12:34:27;;;;;;;1.92;1.20;;;29.20;56.80;;;;;;5080236;28;20197;-78
2022/06/06 12:37:09;;;;;;;2.80;1.40;;;29.30;56.30;;;;;;5082324;28;20201;-79
2022/06/06 12:39:48;;;;;;;4.10;2.65;;;29.30;56.40;;;;;;5086276;28;20197;-79
2022/06/06 12:42:28;;;;;;;4.43;2.60;;;29.10;56.10;;;;;;5083192;28;20185;-78
2022/06/06 12:45:16;;;;;;;5.30;2.20;;;29.10;56.50;;;;;;5084491;28;20202;-78
2022/06/06 12:48:02;;;;;;;6.70;2.85;;;29.20;56.60;;;;;;5081352;28;20197;-78
2022/06/06 12:50:45;;;;;;;6.40;2.63;;;29.40;56.60;;;;;;5081963;28;20209;-78
2022/06/06 12:53:39;;;;;;;3.30;1.73;;;29.40;56.00;;;;;;5075654;28;20561;-78
2022/06/06 12:56:23;;;;;;;2.08;1.40;;;29.50;56.80;;;;;;5085578;28;20866;-78
2022/06/06 12:59:26;;;;;;;2.00;1.40;;;29.60;56.70;;;;;;5076130;28;20205;-79
2022/06/06 13:02:00;;;;;;;3.05;1.20;;;29.70;56.30;;;;;;5057522;28;20194;-79
2022/06/06 13:04:52;;;;;;;2.70;1.38;;;29.80;55.70;;;;;;5078528;28;20766;-78
2022/06/06 13:07:42;;;;;;;2.42;1.35;;;29.80;54.40;;;;;;5073148;28;20202;-79
2022/06/06 13:10:30;;;;;;;1.67;0.95;;;29.90;53.40;;;;;;5080555;28;20289;-78
2022/06/06 13:13:26;;;;;;;2.70;1.23;;;30.10;52.60;;;;;;5082155;28;20197;-80
2022/06/06 13:16:04;;;;;;;1.70;1.13;;;30.40;53.30;;;;;;5082976;28;20418;-80
2022/06/06 13:18:53;;;;;;;1.77;1.38;;;30.80;54.20;;;;;;5082499;28;20190;-79
2022/06/06 13:21:34;;;;;;;2.33;1.30;;;31.00;53.80;;;;;;5083039;28;20210;-79
2022/06/06 13:24:23;;;;;;;4.00;1.55;;;31.20;53.00;;;;;;5081704;28;20190;-78
2022/06/06 13:26:54;;;;;;;2.95;1.35;;;31.20;52.10;;;;;;5077000;28;20561;-79
2022/06/06 13:29:29;;;;;;;2.00;1.08;;;31.30;52.00;;;;;;5084268;28;20201;-79
2022/06/06 13:32:13;;;;;;;1.92;1.30;;;31.30;51.40;;;;;;5079703;28;20232;-79
2022/06/06 13:34:53;;;;;;;2.42;1.58;;;31.30;51.60;;;;;;5082781;28;20208;-80
2022/06/06 13:37:41;;;;;;;1.98;1.40;;;31.20;51.50;;;;;;5075643;28;20233;-79
2022/06/06 13:40:32;;;;;;;3.25;1.60;;;31.00;52.10;;;;;;5077654;28;20932;-79
2022/06/06 13:43:30;;;;;;;6.60;1.40;;;30.80;52.10;;;;;;5080164;28;20201;-78
2022/06/06 13:46:27;;;;;;;2.50;1.70;;;30.50;52.30;;;;;;5055590;28;20226;-78
2022/06/06 13:49:26;;;;;;;2.50;1.90;;;30.30;52.10;;;;;;5082270;28;20181;-78
2022/06/06 13:52:23;;;;;;;2.03;1.70;;;30.10;52.30;;;;;;5044161;28;20197;-79
2022/06/06 13:54:53;;;;;;;3.13;1.17;;;30.00;52.70;;;;;;5079714;28;20194;-79
2022/06/06 13:57:26;;;;;;;2.40;1.52;;;29.90;53.30;;;;;;5083439;28;20565;-80
2022/06/06 14:00:14;;;;;;;3.05;1.50;;;29.80;53.70;;;;;;5076370;28;20567;-81
2022/06/06 14:02:58;;;;;;;1.63;1.17;;;29.70;54.10;;;;;;5072209;28;20810;-78
2022/06/06 14:06:17;;;;;;;1.80;1.30;;;29.60;54.20;;;;;;5079444;28;20955;-79
2022/06/06 14:08:51;;;;;;;2.38;1.42;;;29.50;54.20;;;;;;5028126;28;20206;-80
2022/06/06 14:11:41;;;;;;;2.25;1.50;;;29.40;54.30;;;;;;5084074;28;20221;-81
2022/06/06 14:14:10;;;;;;;5.32;1.30;;;29.40;54.50;;;;;;5082224;28;20192;-81
2022/06/06 14:16:48;;;;;;;2.33;1.60;;;29.40;54.60;;;;;;5081313;28;20213;-81
2022/06/06 14:19:20;;;;;;;2.30;1.42;;;29.40;53.30;;;;;;5081829;28;20876;-82
2022/06/06 14:21:52;;;;;;;1.90;1.45;;;29.40;53.80;;;;;;5084011;28;20198;-82
2022/06/06 14:24:24;;;;;;;4.35;1.60;;;29.40;54.30;;;;;;5082433;28;20190;-81
2022/06/06 14:26:58;;;;;;;1.42;1.23;;;29.40;54.40;;;;;;5081176;28;20202;-79
2022/06/06 14:29:30;;;;;;;2.53;1.40;;;29.50;54.20;;;;;;5083865;28;20499;-80
2022/06/06 14:32:27;;;;;;;1.58;1.27;;;29.50;54.00;;;;;;5084325;28;20213;-81